createdAt,value
2018-09-26T00:01:08.684Z,66.40
2018-09-26T00:03:40.804Z,66.20
2018-09-26T00:06:08.345Z,66.10
2018-09-26T00:08:35.885Z,66.00
2018-09-26T00:11:03.454Z,66.10
2018-09-26T00:13:30.954Z,66.10
2018-09-26T00:15:58.555Z,66.30
2018-09-26T00:18:26.123Z,65.90
2018-09-26T00:20:53.852Z,66.10
2018-09-26T00:23:21.340Z,66.10
2018-09-26T00:25:48.864Z,66.40
2018-09-26T00:28:16.466Z,66.60
2018-09-26T00:30:44.010Z,67.00
2018-09-26T00:33:11.529Z,66.80
2018-09-26T00:35:39.067Z,66.80
2018-09-26T00:38:06.669Z,66.90
2018-09-26T00:40:34.209Z,66.80
2018-09-26T00:43:01.769Z,66.40
2018-09-26T00:45:29.301Z,66.50
2018-09-26T00:47:56.820Z,66.40
2018-09-26T00:50:24.357Z,66.70
2018-09-26T00:52:51.895Z,66.80
2018-09-26T00:55:19.455Z,66.70
2018-09-26T00:57:47.011Z,66.50
2018-09-26T01:00:14.566Z,66.90
2018-09-26T01:02:42.133Z,66.80
2018-09-26T01:05:09.681Z,66.40
2018-09-26T01:07:37.207Z,66.30
2018-09-26T01:10:04.845Z,66.10
2018-09-26T01:12:32.390Z,66.60
2018-09-26T01:14:59.889Z,66.60
2018-09-26T01:17:27.418Z,66.10
2018-09-26T01:19:54.989Z,66.10
2018-09-26T01:22:22.543Z,66.10
2018-09-26T01:24:50.043Z,66.10
2018-09-26T01:27:17.645Z,66.10
2018-09-26T01:29:45.165Z,66.50
2018-09-26T01:32:12.629Z,66.20
2018-09-26T01:34:40.278Z,66.80
2018-09-26T01:37:07.753Z,66.40
2018-09-26T01:39:35.254Z,66.00
2018-09-26T01:42:02.828Z,66.00
2018-09-26T01:44:30.395Z,66.20
2018-09-26T01:46:57.894Z,66.30
2018-09-26T01:49:25.401Z,66.20
2018-09-26T01:51:52.914Z,66.10
2018-09-26T01:54:20.496Z,66.10
2018-09-26T01:56:48.032Z,66.50
2018-09-26T01:59:15.536Z,66.70
2018-09-26T02:01:43.069Z,67.10
2018-09-26T02:04:10.562Z,67.40
2018-09-26T02:06:38.136Z,67.40
2018-09-26T02:09:09.120Z,68.60
2018-09-26T02:11:36.726Z,68.10
2018-09-26T02:14:04.288Z,67.80
2018-09-26T02:16:31.816Z,67.70
2018-09-26T02:18:59.356Z,68.20
2018-09-26T02:21:26.878Z,68.00
2018-09-26T02:23:54.378Z,68.10
2018-09-26T02:26:21.890Z,67.70
2018-09-26T02:28:49.410Z,67.60
2018-09-26T02:31:16.904Z,67.90
2018-09-26T02:33:44.491Z,67.60
2018-09-26T02:36:12.182Z,67.70
2018-09-26T02:38:39.690Z,67.70
2018-09-26T02:41:07.212Z,67.60
2018-09-26T02:43:34.757Z,67.50
2018-09-26T02:46:02.286Z,67.50
2018-09-26T02:48:35.385Z,67.60
2018-09-26T02:51:02.890Z,68.00
2018-09-26T02:53:30.426Z,68.10
2018-09-26T02:55:57.966Z,68.20
2018-09-26T02:58:25.468Z,68.20
2018-09-26T03:00:53.048Z,67.90
2018-09-26T03:03:20.562Z,67.50
2018-09-26T03:05:48.102Z,67.20
2018-09-26T03:08:15.683Z,67.00
2018-09-26T03:10:43.209Z,66.80
2018-09-26T03:13:10.718Z,66.60
2018-09-26T03:15:38.225Z,66.50
2018-09-26T03:18:05.750Z,66.30
2018-09-26T03:20:33.278Z,66.50
2018-09-26T03:23:00.808Z,66.30
2018-09-26T03:25:28.362Z,66.30
2018-09-26T03:27:55.921Z,66.40
2018-09-26T03:30:23.428Z,66.20
2018-09-26T03:32:50.952Z,66.20
2018-09-26T03:35:18.478Z,66.30
2018-09-26T03:37:45.984Z,65.90
2018-09-26T03:40:13.468Z,66.10
2018-09-26T03:42:40.970Z,66.30
2018-09-26T03:45:08.507Z,66.20
2018-09-26T03:47:36.002Z,66.00
2018-09-26T03:50:03.562Z,66.30
2018-09-26T03:52:31.075Z,66.00
2018-09-26T03:54:58.586Z,65.80
2018-09-26T03:57:26.073Z,66.20
2018-09-26T03:59:53.575Z,66.00
2018-09-26T04:02:21.123Z,66.10
2018-09-26T04:04:48.728Z,66.00
2018-09-26T04:07:16.251Z,66.20
2018-09-26T04:09:43.812Z,65.60
2018-09-26T04:12:11.350Z,66.30
2018-09-26T04:14:38.856Z,66.50
2018-09-26T04:17:06.437Z,66.60
2018-09-26T04:19:33.950Z,66.40
2018-09-26T04:22:01.452Z,66.30
2018-09-26T04:24:28.956Z,66.30
2018-09-26T04:26:56.815Z,65.90
2018-09-26T04:29:24.060Z,66.60
2018-09-26T04:31:51.559Z,66.60
2018-09-26T04:34:19.072Z,66.70
2018-09-26T04:36:46.619Z,66.90
2018-09-26T04:39:14.169Z,66.90
2018-09-26T04:41:41.764Z,67.00
2018-09-26T04:44:09.391Z,66.90
2018-09-26T04:46:36.922Z,66.80
2018-09-26T04:49:04.709Z,67.20
2018-09-26T04:51:32.320Z,67.20
2018-09-26T04:53:59.908Z,67.30
2018-09-26T04:56:27.411Z,67.20
2018-09-26T04:58:55.032Z,67.20
2018-09-26T05:01:22.703Z,67.60
2018-09-26T05:03:50.346Z,67.70
2018-09-26T05:06:17.893Z,67.60
2018-09-26T05:08:45.437Z,67.50
2018-09-26T05:11:12.974Z,67.80
2018-09-26T05:13:40.464Z,67.90
2018-09-26T05:16:07.971Z,67.70
2018-09-26T05:18:35.521Z,68.00
2018-09-26T05:21:03.049Z,67.80
2018-09-26T05:23:30.595Z,67.40
2018-09-26T05:25:58.094Z,67.60
2018-09-26T05:28:25.610Z,67.70
2018-09-26T05:30:53.129Z,67.70
2018-09-26T05:33:20.665Z,67.70
2018-09-26T05:35:48.173Z,67.40
2018-09-26T05:38:15.677Z,67.40
2018-09-26T05:40:43.231Z,67.80
2018-09-26T05:43:11.112Z,67.50
2018-09-26T05:45:38.647Z,67.50
2018-09-26T05:48:06.232Z,67.50
2018-09-26T05:50:33.746Z,67.90
2018-09-26T05:53:01.250Z,67.90
2018-09-26T05:55:28.770Z,67.70
2018-09-26T05:57:56.354Z,67.80
2018-09-26T06:00:23.961Z,67.80
2018-09-26T06:02:51.544Z,68.00
2018-09-26T06:05:19.187Z,68.00
2018-09-26T06:07:46.739Z,68.00
2018-09-26T06:10:14.271Z,68.20
2018-09-26T06:12:41.900Z,68.00
2018-09-26T06:15:09.509Z,67.80
2018-09-26T06:17:37.068Z,68.10
2018-09-26T06:20:04.951Z,68.10
2018-09-26T06:22:32.451Z,68.00
2018-09-26T06:24:59.946Z,67.60
2018-09-26T06:27:27.536Z,67.80
2018-09-26T06:29:55.077Z,67.70
2018-09-26T06:32:22.726Z,67.80
2018-09-26T06:34:50.344Z,67.70
2018-09-26T06:37:17.944Z,67.50
2018-09-26T06:39:45.494Z,67.80
2018-09-26T06:42:13.115Z,67.70
2018-09-26T06:44:40.667Z,67.60
2018-09-26T06:47:08.254Z,67.40
2018-09-26T06:49:36.644Z,67.10
2018-09-26T06:52:04.248Z,67.30
2018-09-26T06:54:31.874Z,67.40
2018-09-26T06:56:59.401Z,67.20
2018-09-26T06:59:27.381Z,67.20
2018-09-26T07:01:54.946Z,67.00
2018-09-26T07:04:22.686Z,66.90
2018-09-26T07:06:50.256Z,66.60
2018-09-26T07:09:17.844Z,66.90
2018-09-26T07:11:45.453Z,66.30
2018-09-26T07:14:13.004Z,66.20
2018-09-26T07:16:40.515Z,66.00
2018-09-26T07:19:08.050Z,66.00
2018-09-26T07:21:35.610Z,65.60
2018-09-26T07:24:03.239Z,65.80
2018-09-26T07:26:30.821Z,65.20
2018-09-26T07:28:58.416Z,65.30
2018-09-26T07:31:26.047Z,65.20
2018-09-26T07:33:53.584Z,64.70
2018-09-26T07:36:21.166Z,64.20
2018-09-26T07:38:48.777Z,65.90
2018-09-26T07:41:16.328Z,64.30
2018-09-26T07:43:43.893Z,63.70
2018-09-26T07:46:11.456Z,63.60
2018-09-26T07:48:38.987Z,63.60
2018-09-26T07:51:06.950Z,63.70
2018-09-26T07:53:34.536Z,64.50
2018-09-26T07:56:02.124Z,64.30
2018-09-26T07:58:29.615Z,64.40
2018-09-26T08:00:57.136Z,63.90
2018-09-26T08:03:24.692Z,63.40
2018-09-26T08:05:52.263Z,63.70
2018-09-26T08:08:19.809Z,63.20
2018-09-26T08:10:47.337Z,63.20
2018-09-26T08:13:14.858Z,62.90
2018-09-26T08:15:42.381Z,63.10
2018-09-26T08:18:09.967Z,62.90
2018-09-26T08:20:37.471Z,62.40
2018-09-26T08:23:05.119Z,63.50
2018-09-26T08:25:32.658Z,63.20
2018-09-26T08:28:00.265Z,63.60
2018-09-26T08:30:27.800Z,64.10
2018-09-26T08:32:55.452Z,63.00
2018-09-26T08:35:23.302Z,62.40
2018-09-26T08:37:50.857Z,62.30
2018-09-26T08:40:18.445Z,61.90
2018-09-26T08:42:46.023Z,63.00
2018-09-26T08:45:13.683Z,62.00
2018-09-26T08:47:41.212Z,61.80
2018-09-26T08:50:09.224Z,62.60
2018-09-26T08:52:36.814Z,61.80
2018-09-26T08:55:04.535Z,62.60
2018-09-26T08:57:32.114Z,61.90
2018-09-26T08:59:59.831Z,61.10
2018-09-26T09:02:27.359Z,62.30
2018-09-26T09:04:54.930Z,62.80
2018-09-26T09:07:22.460Z,62.40
2018-09-26T09:09:50.102Z,62.50
2018-09-26T09:12:17.712Z,61.00
2018-09-26T09:14:45.395Z,59.70
2018-09-26T09:17:12.880Z,60.60
2018-09-26T09:19:40.454Z,61.30
2018-09-26T09:22:07.980Z,61.90
2018-09-26T09:24:35.504Z,60.50
2018-09-26T09:27:03.150Z,59.90
2018-09-26T09:29:30.675Z,60.80
2018-09-26T09:31:58.256Z,58.70
2018-09-26T09:34:25.867Z,59.20
2018-09-26T09:36:53.454Z,58.50
2018-09-26T09:39:21.080Z,56.80
2018-09-26T09:41:48.577Z,54.80
2018-09-26T09:44:16.225Z,51.60
2018-09-26T09:46:43.813Z,47.70
2018-09-26T09:49:11.390Z,45.90
2018-09-26T09:51:38.991Z,44.40
2018-09-26T09:54:06.803Z,41.20
2018-09-26T09:56:34.367Z,39.60
2018-09-26T09:59:01.983Z,38.30
2018-09-26T10:01:29.596Z,37.70
2018-09-26T10:03:59.318Z,37.40
2018-09-26T10:06:27.499Z,38.30
2018-09-26T10:08:55.376Z,37.40
2018-09-26T10:11:22.860Z,37.80
2018-09-26T10:13:50.404Z,37.80
2018-09-26T10:16:17.946Z,36.50
2018-09-26T10:18:45.715Z,35.00
2018-09-26T10:21:13.328Z,31.90
2018-09-26T10:23:40.896Z,29.90
2018-09-26T10:26:08.960Z,28.40
2018-09-26T10:28:36.483Z,27.40
2018-09-26T10:31:04.039Z,26.60
2018-09-26T10:33:31.558Z,25.00
2018-09-26T10:35:59.081Z,24.60
2018-09-26T10:38:26.679Z,24.00
2018-09-26T10:40:54.196Z,22.80
2018-09-26T10:43:21.745Z,21.90
2018-09-26T10:45:49.329Z,21.70
2018-09-26T10:48:16.922Z,21.60
2018-09-26T10:50:44.558Z,21.70
2018-09-26T10:53:12.121Z,21.60
2018-09-26T10:55:39.650Z,20.60
2018-09-26T10:58:07.570Z,21.70
2018-09-26T11:00:35.096Z,21.50
2018-09-26T11:03:02.715Z,20.70
2018-09-26T11:05:30.290Z,19.90
2018-09-26T11:07:58.025Z,18.90
2018-09-26T11:10:25.618Z,18.10
2018-09-26T11:12:53.151Z,18.00
2018-09-26T11:15:20.761Z,17.40
2018-09-26T11:17:48.331Z,17.70
2018-09-26T11:20:15.942Z,16.60
2018-09-26T11:22:43.599Z,16.70
2018-09-26T11:25:11.238Z,17.20
2018-09-26T11:27:38.807Z,17.30
2018-09-26T11:30:06.364Z,16.30
2018-09-26T11:32:33.931Z,16.10
2018-09-26T11:35:01.543Z,16.50
2018-09-26T11:37:29.053Z,15.40
2018-09-26T11:39:56.624Z,16.20
2018-09-26T11:42:24.257Z,15.50
2018-09-26T11:44:51.886Z,15.50
2018-09-26T11:47:19.386Z,15.90
2018-09-26T11:49:46.957Z,16.70
2018-09-26T11:52:14.592Z,18.00
2018-09-26T11:54:42.098Z,19.20
2018-09-26T11:57:09.677Z,19.90
2018-09-26T11:59:37.297Z,20.90
2018-09-26T12:02:04.959Z,20.40
2018-09-26T12:04:33.446Z,19.20
2018-09-26T12:07:01.050Z,18.70
2018-09-26T12:09:28.559Z,18.00
2018-09-26T12:11:56.093Z,17.30
2018-09-26T12:14:23.702Z,17.10
2018-09-26T12:16:51.296Z,16.50
2018-09-26T12:19:18.863Z,17.00
2018-09-26T12:21:46.453Z,17.50
2018-09-26T12:24:14.089Z,17.80
2018-09-26T12:26:41.716Z,16.80
2018-09-26T12:29:09.297Z,16.90
2018-09-26T12:31:36.874Z,18.30
2018-09-26T12:34:04.460Z,18.20
2018-09-26T12:36:32.068Z,17.80
2018-09-26T12:38:59.625Z,18.60
2018-09-26T12:41:27.235Z,18.70
2018-09-26T12:43:55.058Z,20.30
2018-09-26T12:46:22.670Z,19.20
2018-09-26T12:48:50.237Z,18.00
2018-09-26T12:51:17.808Z,17.50
2018-09-26T12:53:45.481Z,17.20
2018-09-26T12:56:12.996Z,17.60
2018-09-26T12:58:40.579Z,17.60
2018-09-26T13:01:08.166Z,17.70
2018-09-26T13:03:35.796Z,17.40
2018-09-26T13:06:03.375Z,17.40
2018-09-26T13:08:30.985Z,16.30
2018-09-26T13:10:58.590Z,16.30
2018-09-26T13:13:26.166Z,16.40
2018-09-26T13:15:53.833Z,17.00
2018-09-26T13:18:21.543Z,17.10
2018-09-26T13:20:49.075Z,16.40
2018-09-26T13:23:16.637Z,17.50
2018-09-26T13:25:44.264Z,17.20
2018-09-26T13:28:11.843Z,17.70
2018-09-26T13:30:39.422Z,17.90
2018-09-26T13:33:07.031Z,17.70
2018-09-26T13:35:34.625Z,18.90
2018-09-26T13:38:02.192Z,20.00
2018-09-26T13:40:29.723Z,19.30
2018-09-26T13:42:57.266Z,19.80
2018-09-26T13:45:24.938Z,21.60
2018-09-26T13:47:52.527Z,21.20
2018-09-26T13:50:20.094Z,22.50
2018-09-26T13:52:47.658Z,22.40
2018-09-26T13:55:15.268Z,23.00
2018-09-26T13:57:42.822Z,24.50
2018-09-26T14:00:10.434Z,25.40
2018-09-26T14:02:38.063Z,25.30
2018-09-26T14:05:05.815Z,26.50
2018-09-26T14:07:33.431Z,27.10
2018-09-26T14:10:01.077Z,26.90
2018-09-26T14:12:28.721Z,26.60
2018-09-26T14:14:56.260Z,26.10
2018-09-26T14:17:23.905Z,27.80
2018-09-26T14:19:51.421Z,28.60
2018-09-26T14:22:19.035Z,29.80
2018-09-26T14:24:46.560Z,30.80
2018-09-26T14:27:14.104Z,31.30
2018-09-26T14:29:41.660Z,30.80
2018-09-26T14:32:09.241Z,31.30
2018-09-26T14:34:36.877Z,32.80
2018-09-26T14:37:04.472Z,31.70
2018-09-26T14:39:32.136Z,33.10
2018-09-26T14:41:59.693Z,34.10
2018-09-26T14:44:27.372Z,32.30
2018-09-26T14:46:54.796Z,33.00
2018-09-26T14:49:22.562Z,34.40
2018-09-26T14:51:50.132Z,34.70
2018-09-26T14:54:17.786Z,35.40
2018-09-26T14:56:45.386Z,36.00
2018-09-26T14:59:13.074Z,36.50
2018-09-26T15:01:40.627Z,37.50
2018-09-26T15:04:08.327Z,38.80
2018-09-26T15:06:35.928Z,37.40
2018-09-26T15:09:04.588Z,36.60
2018-09-26T15:11:32.137Z,36.40
2018-09-26T15:13:59.782Z,37.50
2018-09-26T15:16:27.617Z,39.30
2018-09-26T15:18:55.387Z,39.10
2018-09-26T15:21:23.031Z,38.40
2018-09-26T15:23:51.168Z,36.80
2018-09-26T15:26:18.943Z,40.00
2018-09-26T15:28:46.562Z,39.80
2018-09-26T15:31:14.287Z,40.80
2018-09-26T15:33:41.974Z,41.90
2018-09-26T15:36:09.625Z,42.40
2018-09-26T15:38:37.336Z,40.00
2018-09-26T15:41:05.014Z,39.30
2018-09-26T15:43:32.758Z,40.20
2018-09-26T15:46:00.418Z,42.70
2018-09-26T15:48:28.129Z,44.20
2018-09-26T15:50:55.743Z,43.70
2018-09-26T15:53:23.483Z,44.20
2018-09-26T15:55:51.071Z,43.90
2018-09-26T15:58:18.700Z,42.60
2018-09-26T16:00:46.446Z,45.00
2018-09-26T16:03:14.171Z,45.20
2018-09-26T16:05:41.972Z,46.10
2018-09-26T16:08:09.561Z,46.50
2018-09-26T16:10:37.362Z,47.60
2018-09-26T16:13:05.099Z,48.70
2018-09-26T16:15:32.658Z,49.60
2018-09-26T16:18:00.341Z,50.50
2018-09-26T16:20:27.931Z,50.40
2018-09-26T16:22:55.564Z,50.50
2018-09-26T16:25:23.965Z,51.20
2018-09-26T16:27:52.387Z,52.40
2018-09-26T16:30:20.054Z,52.70
2018-09-26T16:32:47.697Z,53.30
2018-09-26T16:35:15.341Z,53.20
2018-09-26T16:37:42.931Z,54.00
2018-09-26T16:40:10.577Z,53.60
2018-09-26T16:42:38.161Z,53.60
2018-09-26T16:45:05.885Z,54.50
2018-09-26T16:47:33.514Z,54.00
2018-09-26T16:50:01.356Z,54.20
2018-09-26T16:52:28.971Z,55.20
2018-09-26T16:54:56.539Z,56.00
2018-09-26T16:57:24.167Z,56.20
2018-09-26T16:59:51.730Z,55.80
2018-09-26T17:02:19.407Z,56.00
2018-09-26T17:04:47.004Z,56.30
2018-09-26T17:07:14.805Z,56.70
2018-09-26T17:09:42.504Z,57.00
2018-09-26T17:12:10.055Z,57.30
2018-09-26T17:14:37.811Z,58.20
2018-09-26T17:17:05.883Z,59.10
2018-09-26T17:19:33.567Z,59.30
2018-09-26T17:22:01.374Z,59.80
2018-09-26T17:24:29.002Z,59.50
2018-09-26T17:26:56.587Z,60.00
2018-09-26T17:29:24.197Z,60.20
2018-09-26T17:31:51.832Z,60.40
2018-09-26T17:34:19.642Z,60.50
2018-09-26T17:36:47.212Z,61.10
2018-09-26T17:39:15.004Z,61.10
2018-09-26T17:41:42.669Z,61.20
2018-09-26T17:44:10.328Z,61.50
2018-09-26T17:46:38.102Z,61.60
2018-09-26T17:49:06.052Z,61.80
2018-09-26T17:51:33.949Z,63.80
2018-09-26T17:54:01.776Z,64.30
2018-09-26T17:56:29.686Z,64.60
2018-09-26T17:58:57.333Z,65.00
2018-09-26T18:01:25.311Z,64.80
2018-09-26T18:03:53.005Z,64.90
2018-09-26T18:06:20.865Z,65.40
2018-09-26T18:08:48.998Z,65.50
2018-09-26T18:11:16.969Z,65.70
2018-09-26T18:13:44.662Z,66.80
2018-09-26T18:16:12.477Z,65.90
2018-09-26T18:18:40.517Z,66.00
2018-09-26T18:21:08.177Z,65.80
2018-09-26T18:23:35.895Z,64.80
2018-09-26T18:26:03.696Z,64.00
2018-09-26T18:28:31.528Z,63.80
2018-09-26T18:30:59.401Z,63.60
2018-09-26T18:33:27.199Z,63.70
2018-09-26T18:35:54.952Z,64.30
2018-09-26T18:38:22.605Z,64.20
2018-09-26T18:40:50.455Z,64.00
2018-09-26T18:43:18.089Z,64.90
2018-09-26T18:45:45.974Z,64.40
2018-09-26T18:48:13.828Z,65.30
2018-09-26T18:50:41.542Z,65.60
2018-09-26T18:53:09.436Z,65.50
2018-09-26T18:55:37.220Z,65.60
2018-09-26T18:58:05.220Z,65.90
2018-09-26T19:00:33.015Z,65.90
2018-09-26T19:03:00.833Z,65.90
2018-09-26T19:05:28.590Z,66.80
2018-09-26T19:07:56.453Z,66.50
2018-09-26T19:10:24.214Z,66.70
2018-09-26T19:12:52.026Z,66.40
2018-09-26T19:15:19.878Z,66.80
2018-09-26T19:17:47.727Z,66.80
2018-09-26T19:20:15.911Z,66.80
2018-09-26T19:22:43.798Z,67.10
2018-09-26T19:25:11.995Z,67.10
2018-09-26T19:27:39.946Z,67.20
2018-09-26T19:30:07.739Z,68.20
2018-09-26T19:32:35.651Z,67.80
2018-09-26T19:35:03.532Z,67.20
2018-09-26T19:37:31.417Z,67.40
2018-09-26T19:39:59.206Z,67.80
2018-09-26T19:42:27.553Z,68.20
2018-09-26T19:44:55.431Z,68.20
2018-09-26T19:47:23.230Z,67.90
2018-09-26T19:49:50.916Z,68.30
2018-09-26T19:52:18.715Z,67.90
2018-09-26T19:54:46.462Z,68.00
2018-09-26T19:57:14.280Z,68.00
2018-09-26T19:59:42.256Z,67.80
2018-09-26T20:02:10.193Z,67.70
2018-09-26T20:04:38.007Z,67.90
2018-09-26T20:07:05.876Z,67.70
2018-09-26T20:09:33.575Z,67.50
2018-09-26T20:12:01.388Z,68.20
2018-09-26T20:14:29.242Z,67.50
2018-09-26T20:16:56.891Z,68.50
2018-09-26T20:19:24.683Z,69.00
2018-09-26T20:21:52.406Z,67.80
2018-09-26T20:24:20.062Z,67.70
2018-09-26T20:26:47.785Z,68.10
2018-09-26T20:29:15.844Z,68.00
2018-09-26T20:31:43.390Z,68.20
2018-09-26T20:34:11.617Z,68.30
2018-09-26T20:36:39.252Z,68.20
2018-09-26T20:39:08.352Z,69.10
2018-09-26T20:41:35.996Z,68.10
2018-09-26T20:44:03.762Z,68.10
2018-09-26T20:46:31.368Z,68.40
2018-09-26T20:48:59.018Z,67.90
2018-09-26T20:51:26.650Z,68.40
2018-09-26T20:53:54.297Z,68.20
2018-09-26T20:56:21.920Z,67.90
2018-09-26T20:58:49.548Z,68.50
2018-09-26T21:01:17.130Z,68.40
2018-09-26T21:03:44.738Z,69.00
2018-09-26T21:06:12.363Z,68.40
2018-09-26T21:08:39.892Z,68.50
2018-09-26T21:11:07.621Z,68.80
2018-09-26T21:13:35.254Z,69.30
2018-09-26T21:16:09.660Z,69.10
2018-09-26T21:18:37.236Z,68.90
2018-09-26T21:21:04.795Z,69.20
2018-09-26T21:23:32.347Z,69.20
2018-09-26T21:25:59.938Z,69.40
2018-09-26T21:28:27.497Z,68.80
2018-09-26T21:30:55.056Z,68.60
2018-09-26T21:33:22.587Z,68.70
2018-09-26T21:35:50.150Z,68.80
2018-09-26T21:38:17.716Z,70.40
2018-09-26T21:40:45.317Z,69.40
2018-09-26T21:43:12.899Z,68.90
2018-09-26T21:45:40.544Z,69.10
2018-09-26T21:48:08.176Z,69.10
2018-09-26T21:50:35.770Z,69.40
2018-09-26T21:53:03.348Z,69.80
2018-09-26T21:55:30.912Z,70.20
2018-09-26T21:57:58.490Z,70.50
2018-09-26T22:00:26.256Z,70.70
2018-09-26T22:02:53.822Z,69.70
2018-09-26T22:05:21.434Z,69.10
2018-09-26T22:07:49.020Z,69.00
2018-09-26T22:10:16.656Z,68.60
2018-09-26T22:12:44.192Z,68.90
2018-09-26T22:15:22.320Z,69.40
2018-09-26T22:17:49.940Z,69.00
2018-09-26T22:20:17.871Z,68.90
2018-09-26T22:22:45.454Z,69.60
2018-09-26T22:25:12.985Z,69.50
2018-09-26T22:27:40.593Z,69.60
2018-09-26T22:30:08.115Z,69.50
2018-09-26T22:32:35.715Z,70.90
2018-09-26T22:35:03.326Z,70.10
2018-09-26T22:37:30.939Z,69.50
2018-09-26T22:39:58.512Z,68.70
2018-09-26T22:42:26.041Z,68.70
2018-09-26T22:44:53.560Z,69.10
2018-09-26T22:47:21.113Z,69.40
2018-09-26T22:49:48.899Z,69.10
2018-09-26T22:52:16.524Z,69.50
2018-09-26T22:54:44.044Z,69.10
2018-09-26T22:57:11.599Z,69.40
2018-09-26T22:59:39.150Z,70.00
2018-09-26T23:02:06.734Z,70.40
2018-09-26T23:04:34.292Z,70.40
2018-09-26T23:07:01.866Z,70.40
2018-09-26T23:09:29.478Z,71.80
2018-09-26T23:11:57.063Z,70.40
2018-09-26T23:14:25.157Z,69.70
2018-09-26T23:16:52.723Z,69.60
2018-09-26T23:19:20.232Z,69.90
2018-09-26T23:21:47.806Z,70.00
2018-09-26T23:24:15.312Z,70.40
2018-09-26T23:26:42.840Z,70.20
2018-09-26T23:29:10.374Z,71.50
2018-09-26T23:31:37.868Z,71.20
2018-09-26T23:34:06.612Z,71.30
2018-09-26T23:36:34.126Z,70.00
2018-09-26T23:39:01.658Z,70.60
2018-09-26T23:41:29.206Z,70.60
2018-09-26T23:43:57.045Z,70.30
2018-09-26T23:46:25.536Z,69.90
2018-09-26T23:48:53.764Z,71.30
2018-09-26T23:51:21.281Z,70.40
2018-09-26T23:53:48.850Z,70.10
2018-09-26T23:56:16.375Z,70.00
2018-09-26T23:58:43.875Z,69.70
